sensor_id;sensor_type;location;lat;lon;timestamp;temperature;humidity
11848;DHT22;5983;49.966;8.052;2022-12-18T00:01:24;-4.40;99.90
11848;DHT22;5983;49.966;8.052;2022-12-18T00:03:53;-4.40;99.90
11848;DHT22;5983;49.966;8.052;2022-12-18T00:06:22;-4.50;99.90
11848;DHT22;5983;49.966;8.052;2022-12-18T00:08:51;-4.40;99.90
11848;DHT22;5983;49.966;8.052;2022-12-18T00:11:20;-4.50;99.90
11848;DHT22;5983;49.966;8.052;2022-12-18T00:13:49;-4.50;99.90
11848;DHT22;5983;49.966;8.052;2022-12-18T00:16:18;-4.50;99.90
11848;DHT22;5983;49.966;8.052;2022-12-18T00:18:49;-4.60;99.90
11848;DHT22;5983;49.966;8.052;2022-12-18T00:21:18;-4.60;99.90
11848;DHT22;5983;49.966;8.052;2022-12-18T00:23:47;-4.60;99.90
11848;DHT22;5983;49.966;8.052;2022-12-18T00:26:17;-4.70;99.90
11848;DHT22;5983;49.966;8.052;2022-12-18T00:28:49;-4.60;99.90
11848;DHT22;5983;49.966;8.052;2022-12-18T00:31:18;-4.70;99.90
11848;DHT22;5983;49.966;8.052;2022-12-18T00:33:48;-4.70;99.90
11848;DHT22;5983;49.966;8.052;2022-12-18T00:36:17;-4.70;99.90
11848;DHT22;5983;49.966;8.052;2022-12-18T00:38:47;-4.70;99.90
11848;DHT22;5983;49.966;8.052;2022-12-18T00:41:16;-4.70;99.90
11848;DHT22;5983;49.966;8.052;2022-12-18T00:44:06;-4.70;99.90
11848;DHT22;5983;49.966;8.052;2022-12-18T00:46:34;-4.70;99.90
11848;DHT22;5983;49.966;8.052;2022-12-18T00:49:03;-4.70;99.90
11848;DHT22;5983;49.966;8.052;2022-12-18T00:51:30;-4.70;99.90
11848;DHT22;5983;49.966;8.052;2022-12-18T00:53:57;-4.80;99.90
11848;DHT22;5983;49.966;8.052;2022-12-18T00:56:25;-4.80;99.90
11848;DHT22;5983;49.966;8.052;2022-12-18T00:58:52;-4.80;99.90
11848;DHT22;5983;49.966;8.052;2022-12-18T01:01:19;-4.80;99.90
11848;DHT22;5983;49.966;8.052;2022-12-18T01:03:46;-4.70;99.90
11848;DHT22;5983;49.966;8.052;2022-12-18T01:06:15;-4.70;99.90
11848;DHT22;5983;49.966;8.052;2022-12-18T01:08:43;-4.70;99.90
11848;DHT22;5983;49.966;8.052;2022-12-18T01:11:12;-4.70;99.90
11848;DHT22;5983;49.966;8.052;2022-12-18T01:13:41;-4.70;99.90
11848;DHT22;5983;49.966;8.052;2022-12-18T01:16:08;-4.80;99.90
11848;DHT22;5983;49.966;8.052;2022-12-18T01:18:37;-4.80;99.90
11848;DHT22;5983;49.966;8.052;2022-12-18T01:21:06;-4.90;99.90
11848;DHT22;5983;49.966;8.052;2022-12-18T01:23:35;-5.00;99.90
11848;DHT22;5983;49.966;8.052;2022-12-18T01:26:07;-5.00;99.90
11848;DHT22;5983;49.966;8.052;2022-12-18T01:28:35;-5.00;99.90
11848;DHT22;5983;49.966;8.052;2022-12-18T01:31:13;-5.00;99.90
11848;DHT22;5983;49.966;8.052;2022-12-18T01:33:42;-5.00;99.90
11848;DHT22;5983;49.966;8.052;2022-12-18T01:36:15;-5.00;99.90
11848;DHT22;5983;49.966;8.052;2022-12-18T01:38:45;-5.00;99.90
11848;DHT22;5983;49.966;8.052;2022-12-18T01:41:13;-5.10;99.90
11848;DHT22;5983;49.966;8.052;2022-12-18T01:43:46;-5.10;99.90
11848;DHT22;5983;49.966;8.052;2022-12-18T01:46:15;-5.10;99.90
11848;DHT22;5983;49.966;8.052;2022-12-18T01:48:43;-5.10;99.90
11848;DHT22;5983;49.966;8.052;2022-12-18T01:51:12;-5.10;99.90
11848;DHT22;5983;49.966;8.052;2022-12-18T01:53:41;-5.20;99.90
11848;DHT22;5983;49.966;8.052;2022-12-18T01:56:13;-5.30;99.90
11848;DHT22;5983;49.966;8.052;2022-12-18T01:58:48;-5.30;99.90
11848;DHT22;5983;49.966;8.052;2022-12-18T02:01:20;-5.40;99.90
11848;DHT22;5983;49.966;8.052;2022-12-18T02:03:48;-5.40;99.90
11848;DHT22;5983;49.966;8.052;2022-12-18T02:06:18;-5.50;99.90
11848;DHT22;5983;49.966;8.052;2022-12-18T02:08:57;-5.60;99.90
11848;DHT22;5983;49.966;8.052;2022-12-18T02:11:39;-5.60;99.90
11848;DHT22;5983;49.966;8.052;2022-12-18T02:14:18;-5.60;99.90
11848;DHT22;5983;49.966;8.052;2022-12-18T02:16:59;-5.70;99.90
11848;DHT22;5983;49.966;8.052;2022-12-18T02:19:44;-5.80;99.90
11848;DHT22;5983;49.966;8.052;2022-12-18T02:22:29;-5.80;99.90
11848;DHT22;5983;49.966;8.052;2022-12-18T02:25:18;-5.80;99.90
11848;DHT22;5983;49.966;8.052;2022-12-18T02:27:54;-5.80;99.90
11848;DHT22;5983;49.966;8.052;2022-12-18T02:30:27;-5.90;99.90
11848;DHT22;5983;49.966;8.052;2022-12-18T02:32:59;-5.90;99.90
11848;DHT22;5983;49.966;8.052;2022-12-18T02:35:30;-6.10;99.90
11848;DHT22;5983;49.966;8.052;2022-12-18T02:37:58;-6.10;99.90
11848;DHT22;5983;49.966;8.052;2022-12-18T02:40:27;-6.20;99.90
11848;DHT22;5983;49.966;8.052;2022-12-18T02:43:02;-6.30;99.90
11848;DHT22;5983;49.966;8.052;2022-12-18T02:45:33;-6.40;99.90
11848;DHT22;5983;49.966;8.052;2022-12-18T02:48:00;-6.50;99.90
11848;DHT22;5983;49.966;8.052;2022-12-18T02:50:39;-6.50;99.90
11848;DHT22;5983;49.966;8.052;2022-12-18T02:53:18;-6.50;99.90
11848;DHT22;5983;49.966;8.052;2022-12-18T02:55:58;-6.50;99.90
11848;DHT22;5983;49.966;8.052;2022-12-18T02:58:40;-6.60;99.90
11848;DHT22;5983;49.966;8.052;2022-12-18T03:01:16;-6.60;99.90
11848;DHT22;5983;49.966;8.052;2022-12-18T03:03:52;-6.70;99.90
11848;DHT22;5983;49.966;8.052;2022-12-18T03:06:26;-6.80;99.90
11848;DHT22;5983;49.966;8.052;2022-12-18T03:08:58;-6.80;99.90
11848;DHT22;5983;49.966;8.052;2022-12-18T03:11:29;-6.80;99.90
11848;DHT22;5983;49.966;8.052;2022-12-18T03:14:20;-6.90;99.90
11848;DHT22;5983;49.966;8.052;2022-12-18T03:16:52;-7.00;99.90
11848;DHT22;5983;49.966;8.052;2022-12-18T03:19:23;-7.00;99.90
11848;DHT22;5983;49.966;8.052;2022-12-18T03:21:56;-7.00;99.90
11848;DHT22;5983;49.966;8.052;2022-12-18T03:24:26;-7.00;99.90
11848;DHT22;5983;49.966;8.052;2022-12-18T03:27:01;-7.00;99.90
11848;DHT22;5983;49.966;8.052;2022-12-18T03:29:35;-7.10;99.90
11848;DHT22;5983;49.966;8.052;2022-12-18T03:32:07;-7.10;99.90
11848;DHT22;5983;49.966;8.052;2022-12-18T03:34:39;-7.10;99.90
11848;DHT22;5983;49.966;8.052;2022-12-18T03:37:08;-7.20;99.90
11848;DHT22;5983;49.966;8.052;2022-12-18T03:39:35;-7.20;99.90
11848;DHT22;5983;49.966;8.052;2022-12-18T03:42:07;-7.20;99.90
11848;DHT22;5983;49.966;8.052;2022-12-18T03:44:45;-7.30;99.90
11848;DHT22;5983;49.966;8.052;2022-12-18T03:47:24;-7.30;99.90
11848;DHT22;5983;49.966;8.052;2022-12-18T03:49:59;-7.40;99.90
11848;DHT22;5983;49.966;8.052;2022-12-18T03:52:37;-7.50;99.90
11848;DHT22;5983;49.966;8.052;2022-12-18T03:55:08;-7.50;99.90
11848;DHT22;5983;49.966;8.052;2022-12-18T03:57:37;-7.50;99.90
11848;DHT22;5983;49.966;8.052;2022-12-18T04:00:09;-7.50;99.90
11848;DHT22;5983;49.966;8.052;2022-12-18T04:02:43;-7.50;99.90
11848;DHT22;5983;49.966;8.052;2022-12-18T04:05:13;-7.50;99.90
11848;DHT22;5983;49.966;8.052;2022-12-18T04:07:42;-7.60;99.90
11848;DHT22;5983;49.966;8.052;2022-12-18T04:10:12;-7.60;99.90
11848;DHT22;5983;49.966;8.052;2022-12-18T04:12:41;-7.70;99.90
11848;DHT22;5983;49.966;8.052;2022-12-18T04:15:11;-7.80;99.90
11848;DHT22;5983;49.966;8.052;2022-12-18T04:17:41;-7.90;99.90
11848;DHT22;5983;49.966;8.052;2022-12-18T04:20:13;-7.90;99.90
11848;DHT22;5983;49.966;8.052;2022-12-18T04:22:40;-8.00;99.90
11848;DHT22;5983;49.966;8.052;2022-12-18T04:25:08;-8.00;99.90
11848;DHT22;5983;49.966;8.052;2022-12-18T04:27:35;-8.10;99.90
11848;DHT22;5983;49.966;8.052;2022-12-18T04:30:02;-8.10;99.90
11848;DHT22;5983;49.966;8.052;2022-12-18T04:32:33;-8.10;99.90
11848;DHT22;5983;49.966;8.052;2022-12-18T04:35:00;-8.10;99.90
11848;DHT22;5983;49.966;8.052;2022-12-18T04:37:27;-8.10;99.90
11848;DHT22;5983;49.966;8.052;2022-12-18T04:39:55;-8.10;99.90
11848;DHT22;5983;49.966;8.052;2022-12-18T04:42:22;-8.10;99.90
11848;DHT22;5983;49.966;8.052;2022-12-18T04:44:49;-8.10;99.90
11848;DHT22;5983;49.966;8.052;2022-12-18T04:47:16;-8.10;99.90
11848;DHT22;5983;49.966;8.052;2022-12-18T04:49:44;-8.00;99.90
11848;DHT22;5983;49.966;8.052;2022-12-18T04:52:11;-8.00;99.90
11848;DHT22;5983;49.966;8.052;2022-12-18T04:54:38;-8.00;99.90
11848;DHT22;5983;49.966;8.052;2022-12-18T04:57:05;-7.90;99.90
11848;DHT22;5983;49.966;8.052;2022-12-18T04:59:32;-7.90;99.90
11848;DHT22;5983;49.966;8.052;2022-12-18T05:01:59;-7.90;99.90
11848;DHT22;5983;49.966;8.052;2022-12-18T05:04:26;-7.90;99.90
11848;DHT22;5983;49.966;8.052;2022-12-18T05:06:54;-7.80;99.90
11848;DHT22;5983;49.966;8.052;2022-12-18T05:09:21;-7.80;99.90
11848;DHT22;5983;49.966;8.052;2022-12-18T05:11:48;-7.80;99.90
11848;DHT22;5983;49.966;8.052;2022-12-18T05:14:15;-7.70;99.90
11848;DHT22;5983;49.966;8.052;2022-12-18T05:16:41;-7.70;99.90
11848;DHT22;5983;49.966;8.052;2022-12-18T05:19:08;-7.60;99.90
11848;DHT22;5983;49.966;8.052;2022-12-18T05:21:35;-7.60;99.90
11848;DHT22;5983;49.966;8.052;2022-12-18T05:24:04;-7.50;99.90
11848;DHT22;5983;49.966;8.052;2022-12-18T05:26:31;-7.50;99.90
11848;DHT22;5983;49.966;8.052;2022-12-18T05:28:58;-7.50;99.90
11848;DHT22;5983;49.966;8.052;2022-12-18T05:31:25;-7.50;99.90
11848;DHT22;5983;49.966;8.052;2022-12-18T05:33:52;-7.50;99.90
11848;DHT22;5983;49.966;8.052;2022-12-18T05:36:19;-7.50;99.90
11848;DHT22;5983;49.966;8.052;2022-12-18T05:38:46;-7.50;99.90
11848;DHT22;5983;49.966;8.052;2022-12-18T05:41:14;-7.50;99.90
11848;DHT22;5983;49.966;8.052;2022-12-18T05:43:41;-7.50;99.90
11848;DHT22;5983;49.966;8.052;2022-12-18T05:46:12;-7.50;99.90
11848;DHT22;5983;49.966;8.052;2022-12-18T05:48:40;-7.50;99.90
11848;DHT22;5983;49.966;8.052;2022-12-18T05:51:10;-7.50;99.90
11848;DHT22;5983;49.966;8.052;2022-12-18T05:53:39;-7.50;99.90
11848;DHT22;5983;49.966;8.052;2022-12-18T05:56:09;-7.50;99.90
11848;DHT22;5983;49.966;8.052;2022-12-18T05:58:39;-7.50;99.90
11848;DHT22;5983;49.966;8.052;2022-12-18T06:01:08;-7.50;99.90
11848;DHT22;5983;49.966;8.052;2022-12-18T06:03:37;-7.60;99.90
11848;DHT22;5983;49.966;8.052;2022-12-18T06:06:13;-7.60;99.90
11848;DHT22;5983;49.966;8.052;2022-12-18T06:08:41;-7.70;99.90
11848;DHT22;5983;49.966;8.052;2022-12-18T06:11:08;-7.70;99.90
11848;DHT22;5983;49.966;8.052;2022-12-18T06:13:34;-7.80;99.90
11848;DHT22;5983;49.966;8.052;2022-12-18T06:16:04;-7.80;99.90
11848;DHT22;5983;49.966;8.052;2022-12-18T06:18:32;-7.90;99.90
11848;DHT22;5983;49.966;8.052;2022-12-18T06:21:03;-7.90;99.90
11848;DHT22;5983;49.966;8.052;2022-12-18T06:23:30;-7.90;99.90
11848;DHT22;5983;49.966;8.052;2022-12-18T06:25:57;-7.90;99.90
11848;DHT22;5983;49.966;8.052;2022-12-18T06:28:24;-7.90;99.90
11848;DHT22;5983;49.966;8.052;2022-12-18T06:30:51;-8.00;99.90
11848;DHT22;5983;49.966;8.052;2022-12-18T06:33:19;-8.00;99.90
11848;DHT22;5983;49.966;8.052;2022-12-18T06:35:46;-8.00;99.90
11848;DHT22;5983;49.966;8.052;2022-12-18T06:38:13;-8.00;99.90
11848;DHT22;5983;49.966;8.052;2022-12-18T06:40:40;-8.10;99.90
11848;DHT22;5983;49.966;8.052;2022-12-18T06:43:07;-8.10;99.90
11848;DHT22;5983;49.966;8.052;2022-12-18T06:45:34;-8.10;99.90
11848;DHT22;5983;49.966;8.052;2022-12-18T06:48:01;-8.20;99.90
11848;DHT22;5983;49.966;8.052;2022-12-18T06:50:29;-8.20;99.90
11848;DHT22;5983;49.966;8.052;2022-12-18T06:52:56;-8.30;99.90
11848;DHT22;5983;49.966;8.052;2022-12-18T06:55:23;-8.30;99.90
11848;DHT22;5983;49.966;8.052;2022-12-18T06:57:50;-8.30;99.90
11848;DHT22;5983;49.966;8.052;2022-12-18T07:00:17;-8.30;99.90
11848;DHT22;5983;49.966;8.052;2022-12-18T07:02:45;-8.30;99.90
11848;DHT22;5983;49.966;8.052;2022-12-18T07:05:11;-8.30;99.90
11848;DHT22;5983;49.966;8.052;2022-12-18T07:07:40;-8.30;99.90
11848;DHT22;5983;49.966;8.052;2022-12-18T07:10:07;-8.30;99.90
11848;DHT22;5983;49.966;8.052;2022-12-18T07:12:35;-8.40;99.90
11848;DHT22;5983;49.966;8.052;2022-12-18T07:15:02;-8.40;99.90
11848;DHT22;5983;49.966;8.052;2022-12-18T07:17:30;-8.40;99.90
11848;DHT22;5983;49.966;8.052;2022-12-18T07:19:57;-8.40;99.90
11848;DHT22;5983;49.966;8.052;2022-12-18T07:22:25;-8.40;99.90
11848;DHT22;5983;49.966;8.052;2022-12-18T07:24:53;-8.50;99.90
11848;DHT22;5983;49.966;8.052;2022-12-18T07:27:20;-8.50;99.90
11848;DHT22;5983;49.966;8.052;2022-12-18T07:29:48;-8.50;99.90
11848;DHT22;5983;49.966;8.052;2022-12-18T07:32:15;-8.50;99.90
11848;DHT22;5983;49.966;8.052;2022-12-18T07:34:42;-8.50;99.90
11848;DHT22;5983;49.966;8.052;2022-12-18T07:37:09;-8.50;99.90
11848;DHT22;5983;49.966;8.052;2022-12-18T07:39:36;-8.50;99.90
11848;DHT22;5983;49.966;8.052;2022-12-18T07:42:04;-8.50;99.90
11848;DHT22;5983;49.966;8.052;2022-12-18T07:44:48;-8.50;99.90
11848;DHT22;5983;49.966;8.052;2022-12-18T07:47:15;-8.40;99.90
11848;DHT22;5983;49.966;8.052;2022-12-18T07:49:42;-8.40;99.90
11848;DHT22;5983;49.966;8.052;2022-12-18T07:52:09;-8.40;99.90
11848;DHT22;5983;49.966;8.052;2022-12-18T07:54:37;-8.30;99.90
11848;DHT22;5983;49.966;8.052;2022-12-18T07:57:07;-8.30;99.90
11848;DHT22;5983;49.966;8.052;2022-12-18T07:59:34;-8.20;99.90
11848;DHT22;5983;49.966;8.052;2022-12-18T08:02:01;-8.20;99.90
11848;DHT22;5983;49.966;8.052;2022-12-18T08:04:28;-8.00;99.90
11848;DHT22;5983;49.966;8.052;2022-12-18T08:06:55;-8.00;99.90
11848;DHT22;5983;49.966;8.052;2022-12-18T08:09:22;-7.90;99.90
11848;DHT22;5983;49.966;8.052;2022-12-18T08:11:49;-7.80;99.90
11848;DHT22;5983;49.966;8.052;2022-12-18T08:14:17;-7.70;99.90
11848;DHT22;5983;49.966;8.052;2022-12-18T08:16:44;-7.70;99.90
11848;DHT22;5983;49.966;8.052;2022-12-18T08:19:11;-7.60;99.90
11848;DHT22;5983;49.966;8.052;2022-12-18T08:21:38;-7.60;99.90
11848;DHT22;5983;49.966;8.052;2022-12-18T08:24:05;-7.50;99.90
11848;DHT22;5983;49.966;8.052;2022-12-18T08:26:32;-7.40;99.90
11848;DHT22;5983;49.966;8.052;2022-12-18T08:28:59;-7.30;99.90
11848;DHT22;5983;49.966;8.052;2022-12-18T08:31:29;-7.20;99.90
11848;DHT22;5983;49.966;8.052;2022-12-18T08:33:58;-7.10;99.90
11848;DHT22;5983;49.966;8.052;2022-12-18T08:36:25;-7.00;99.90
11848;DHT22;5983;49.966;8.052;2022-12-18T08:38:52;-6.90;99.90
11848;DHT22;5983;49.966;8.052;2022-12-18T08:41:19;-6.80;99.90
11848;DHT22;5983;49.966;8.052;2022-12-18T08:43:47;-6.70;99.90
11848;DHT22;5983;49.966;8.052;2022-12-18T08:46:36;-6.60;99.90
11848;DHT22;5983;49.966;8.052;2022-12-18T08:49:04;-6.40;99.90
11848;DHT22;5983;49.966;8.052;2022-12-18T08:51:33;-6.30;99.90
11848;DHT22;5983;49.966;8.052;2022-12-18T08:54:00;-6.20;99.90
11848;DHT22;5983;49.966;8.052;2022-12-18T08:56:28;-6.00;99.90
11848;DHT22;5983;49.966;8.052;2022-12-18T08:58:55;-5.80;99.90
11848;DHT22;5983;49.966;8.052;2022-12-18T09:01:23;-5.60;99.90
11848;DHT22;5983;49.966;8.052;2022-12-18T09:03:52;-5.10;99.90
11848;DHT22;5983;49.966;8.052;2022-12-18T09:06:21;-4.50;99.90
11848;DHT22;5983;49.966;8.052;2022-12-18T09:08:49;-3.60;99.90
11848;DHT22;5983;49.966;8.052;2022-12-18T09:11:20;-2.90;99.90
11848;DHT22;5983;49.966;8.052;2022-12-18T09:13:48;-2.20;99.90
11848;DHT22;5983;49.966;8.052;2022-12-18T09:16:16;-1.50;99.90
11848;DHT22;5983;49.966;8.052;2022-12-18T09:18:43;-0.90;99.90
11848;DHT22;5983;49.966;8.052;2022-12-18T09:21:14;-0.30;99.90
11848;DHT22;5983;49.966;8.052;2022-12-18T09:23:42;0.20;99.90
11848;DHT22;5983;49.966;8.052;2022-12-18T09:26:09;0.50;99.90
11848;DHT22;5983;49.966;8.052;2022-12-18T09:28:36;0.50;99.90
11848;DHT22;5983;49.966;8.052;2022-12-18T09:31:05;0.20;99.90
11848;DHT22;5983;49.966;8.052;2022-12-18T09:33:34;-0.20;99.90
11848;DHT22;5983;49.966;8.052;2022-12-18T09:36:02;-0.50;99.90
11848;DHT22;5983;49.966;8.052;2022-12-18T09:38:33;-0.80;99.90
11848;DHT22;5983;49.966;8.052;2022-12-18T09:41:04;-0.90;99.90
11848;DHT22;5983;49.966;8.052;2022-12-18T09:43:42;-0.90;99.90
11848;DHT22;5983;49.966;8.052;2022-12-18T09:46:17;-0.90;99.90
11848;DHT22;5983;49.966;8.052;2022-12-18T09:48:52;-0.70;99.90
11848;DHT22;5983;49.966;8.052;2022-12-18T09:51:26;-0.20;99.90
11848;DHT22;5983;49.966;8.052;2022-12-18T09:54:01;0.50;99.90
11848;DHT22;5983;49.966;8.052;2022-12-18T09:56:34;1.40;99.90
11848;DHT22;5983;49.966;8.052;2022-12-18T09:59:04;2.60;99.90
11848;DHT22;5983;49.966;8.052;2022-12-18T10:01:32;4.00;99.90
11848;DHT22;5983;49.966;8.052;2022-12-18T10:03:59;5.10;99.10
11848;DHT22;5983;49.966;8.052;2022-12-18T10:06:30;6.30;95.00
11848;DHT22;5983;49.966;8.052;2022-12-18T10:09:05;7.40;90.80
11848;DHT22;5983;49.966;8.052;2022-12-18T10:11:42;8.60;82.00
11848;DHT22;5983;49.966;8.052;2022-12-18T10:14:19;9.40;74.10
11848;DHT22;5983;49.966;8.052;2022-12-18T10:16:59;10.00;67.10
11848;DHT22;5983;49.966;8.052;2022-12-18T10:19:39;10.30;63.60
11848;DHT22;5983;49.966;8.052;2022-12-18T10:22:21;10.30;60.40
11848;DHT22;5983;49.966;8.052;2022-12-18T10:25:01;10.10;58.80
11848;DHT22;5983;49.966;8.052;2022-12-18T10:27:32;9.60;59.50
11848;DHT22;5983;49.966;8.052;2022-12-18T10:30:04;9.20;59.80
11848;DHT22;5983;49.966;8.052;2022-12-18T10:32:38;8.60;60.80
11848;DHT22;5983;49.966;8.052;2022-12-18T10:35:15;8.00;63.00
11848;DHT22;5983;49.966;8.052;2022-12-18T10:38:03;7.30;64.00
11848;DHT22;5983;49.966;8.052;2022-12-18T10:40:48;6.60;66.60
11848;DHT22;5983;49.966;8.052;2022-12-18T10:43:21;6.10;67.30
11848;DHT22;5983;49.966;8.052;2022-12-18T10:46:00;5.60;69.50
11848;DHT22;5983;49.966;8.052;2022-12-18T10:48:30;5.20;72.30
11848;DHT22;5983;49.966;8.052;2022-12-18T10:50:58;5.20;73.60
11848;DHT22;5983;49.966;8.052;2022-12-18T10:53:28;5.10;74.60
11848;DHT22;5983;49.966;8.052;2022-12-18T10:55:59;4.90;75.00
11848;DHT22;5983;49.966;8.052;2022-12-18T10:58:28;4.70;76.40
11848;DHT22;5983;49.966;8.052;2022-12-18T11:01:11;5.20;77.40
11848;DHT22;5983;49.966;8.052;2022-12-18T11:03:41;6.20;76.30
11848;DHT22;5983;49.966;8.052;2022-12-18T11:06:12;6.90;73.60
11848;DHT22;5983;49.966;8.052;2022-12-18T11:08:41;7.50;71.30
11848;DHT22;5983;49.966;8.052;2022-12-18T11:11:20;7.90;69.00
11848;DHT22;5983;49.966;8.052;2022-12-18T11:13:58;8.20;68.40
11848;DHT22;5983;49.966;8.052;2022-12-18T11:16:30;8.30;67.20
11848;DHT22;5983;49.966;8.052;2022-12-18T11:19:17;8.10;66.30
11848;DHT22;5983;49.966;8.052;2022-12-18T11:21:50;7.90;66.90
11848;DHT22;5983;49.966;8.052;2022-12-18T11:24:24;7.40;67.20
11848;DHT22;5983;49.966;8.052;2022-12-18T11:26:57;7.10;67.70
11848;DHT22;5983;49.966;8.052;2022-12-18T11:29:35;6.80;69.00
11848;DHT22;5983;49.966;8.052;2022-12-18T11:32:30;6.70;69.50
11848;DHT22;5983;49.966;8.052;2022-12-18T11:35:04;6.70;69.60
11848;DHT22;5983;49.966;8.052;2022-12-18T11:37:45;6.40;70.60
11848;DHT22;5983;49.966;8.052;2022-12-18T11:40:17;5.90;73.10
11848;DHT22;5983;49.966;8.052;2022-12-18T11:42:53;5.60;75.40
11848;DHT22;5983;49.966;8.052;2022-12-18T11:45:27;5.40;76.90
11848;DHT22;5983;49.966;8.052;2022-12-18T11:48:03;5.30;78.00
11848;DHT22;5983;49.966;8.052;2022-12-18T11:50:43;5.20;78.50
11848;DHT22;5983;49.966;8.052;2022-12-18T11:53:13;4.90;79.10
11848;DHT22;5983;49.966;8.052;2022-12-18T11:55:47;4.50;80.50
11848;DHT22;5983;49.966;8.052;2022-12-18T11:58:30;4.10;83.00
11848;DHT22;5983;49.966;8.052;2022-12-18T12:01:17;3.70;84.20
11848;DHT22;5983;49.966;8.052;2022-12-18T12:04:07;3.40;85.90
11848;DHT22;5983;49.966;8.052;2022-12-18T12:07:03;3.10;87.10
11848;DHT22;5983;49.966;8.052;2022-12-18T12:09:43;2.60;88.20
11848;DHT22;5983;49.966;8.052;2022-12-18T12:12:28;2.00;90.20
11848;DHT22;5983;49.966;8.052;2022-12-18T12:15:20;1.50;92.40
11848;DHT22;5983;49.966;8.052;2022-12-18T12:18:05;0.80;95.00
11848;DHT22;5983;49.966;8.052;2022-12-18T12:20:47;0.50;98.00
11848;DHT22;5983;49.966;8.052;2022-12-18T12:23:27;0.30;99.90
11848;DHT22;5983;49.966;8.052;2022-12-18T12:26:06;0.30;99.90
11848;DHT22;5983;49.966;8.052;2022-12-18T12:28:57;0.40;99.90
11848;DHT22;5983;49.966;8.052;2022-12-18T12:32:07;0.50;99.90
11848;DHT22;5983;49.966;8.052;2022-12-18T12:34:49;0.70;99.90
11848;DHT22;5983;49.966;8.052;2022-12-18T12:37:32;0.70;99.90
11848;DHT22;5983;49.966;8.052;2022-12-18T12:40:07;0.60;99.90
11848;DHT22;5983;49.966;8.052;2022-12-18T12:42:43;0.50;99.90
11848;DHT22;5983;49.966;8.052;2022-12-18T12:45:36;0.30;99.90
11848;DHT22;5983;49.966;8.052;2022-12-18T12:48:16;0.20;99.90
11848;DHT22;5983;49.966;8.052;2022-12-18T12:50:52;0.00;99.90
11848;DHT22;5983;49.966;8.052;2022-12-18T12:53:25;-0.20;99.90
11848;DHT22;5983;49.966;8.052;2022-12-18T12:55:55;-0.50;99.90
11848;DHT22;5983;49.966;8.052;2022-12-18T12:58:31;-0.80;99.90
11848;DHT22;5983;49.966;8.052;2022-12-18T13:01:20;-1.00;99.90
11848;DHT22;5983;49.966;8.052;2022-12-18T13:04:00;-1.10;99.90
11848;DHT22;5983;49.966;8.052;2022-12-18T13:06:42;-1.30;99.90
11848;DHT22;5983;49.966;8.052;2022-12-18T13:09:13;-1.40;99.90
11848;DHT22;5983;49.966;8.052;2022-12-18T13:11:41;-1.50;99.90
11848;DHT22;5983;49.966;8.052;2022-12-18T13:14:29;-1.60;99.90
11848;DHT22;5983;49.966;8.052;2022-12-18T13:17:29;-1.70;99.90
11848;DHT22;5983;49.966;8.052;2022-12-18T13:20:07;-1.70;99.90
11848;DHT22;5983;49.966;8.052;2022-12-18T13:22:38;-1.70;99.90
11848;DHT22;5983;49.966;8.052;2022-12-18T13:25:35;-1.70;99.90
11848;DHT22;5983;49.966;8.052;2022-12-18T13:28:07;-1.70;99.90
11848;DHT22;5983;49.966;8.052;2022-12-18T13:30:54;-1.60;99.90
11848;DHT22;5983;49.966;8.052;2022-12-18T13:36:26;-1.50;99.90
11848;DHT22;5983;49.966;8.052;2022-12-18T13:45:40;-1.50;99.90
11848;DHT22;5983;49.966;8.052;2022-12-18T13:48:18;-1.50;99.90
11848;DHT22;5983;49.966;8.052;2022-12-18T13:50:53;-1.60;99.90
11848;DHT22;5983;49.966;8.052;2022-12-18T13:53:28;-1.80;99.90
11848;DHT22;5983;49.966;8.052;2022-12-18T13:55:59;-1.80;99.90
11848;DHT22;5983;49.966;8.052;2022-12-18T13:58:26;-1.80;99.90
11848;DHT22;5983;49.966;8.052;2022-12-18T14:00:53;-1.80;99.90
11848;DHT22;5983;49.966;8.052;2022-12-18T14:03:22;-1.90;99.90
11848;DHT22;5983;49.966;8.052;2022-12-18T14:05:57;-1.90;99.90
11848;DHT22;5983;49.966;8.052;2022-12-18T14:08:33;-2.00;99.90
11848;DHT22;5983;49.966;8.052;2022-12-18T14:11:05;-2.00;99.90
11848;DHT22;5983;49.966;8.052;2022-12-18T14:13:36;-2.00;99.90
11848;DHT22;5983;49.966;8.052;2022-12-18T14:16:06;-1.90;99.90
11848;DHT22;5983;49.966;8.052;2022-12-18T14:18:42;-1.90;99.90
11848;DHT22;5983;49.966;8.052;2022-12-18T14:21:21;-1.90;99.90
11848;DHT22;5983;49.966;8.052;2022-12-18T14:24:03;-1.90;99.90
11848;DHT22;5983;49.966;8.052;2022-12-18T14:26:32;-1.90;99.90
11848;DHT22;5983;49.966;8.052;2022-12-18T14:29:01;-1.90;99.90
11848;DHT22;5983;49.966;8.052;2022-12-18T14:31:46;-2.00;99.90
11848;DHT22;5983;49.966;8.052;2022-12-18T14:34:30;-2.10;99.90
11848;DHT22;5983;49.966;8.052;2022-12-18T14:36:57;-2.10;99.90
11848;DHT22;5983;49.966;8.052;2022-12-18T14:39:25;-2.10;99.90
11848;DHT22;5983;49.966;8.052;2022-12-18T14:41:52;-2.20;99.90
11848;DHT22;5983;49.966;8.052;2022-12-18T14:44:19;-2.20;99.90
11848;DHT22;5983;49.966;8.052;2022-12-18T14:46:49;-2.30;99.90
11848;DHT22;5983;49.966;8.052;2022-12-18T14:49:24;-2.40;99.90
11848;DHT22;5983;49.966;8.052;2022-12-18T14:51:57;-2.40;99.90
11848;DHT22;5983;49.966;8.052;2022-12-18T14:54:30;-2.40;99.90
11848;DHT22;5983;49.966;8.052;2022-12-18T14:57:01;-2.50;99.90
11848;DHT22;5983;49.966;8.052;2022-12-18T14:59:30;-2.50;99.90
11848;DHT22;5983;49.966;8.052;2022-12-18T15:02:03;-2.50;99.90
11848;DHT22;5983;49.966;8.052;2022-12-18T15:04:39;-2.50;99.90
11848;DHT22;5983;49.966;8.052;2022-12-18T15:07:12;-2.50;99.90
11848;DHT22;5983;49.966;8.052;2022-12-18T15:09:44;-2.50;99.90
11848;DHT22;5983;49.966;8.052;2022-12-18T15:12:34;-2.60;99.90
11848;DHT22;5983;49.966;8.052;2022-12-18T15:15:03;-2.60;99.90
11848;DHT22;5983;49.966;8.052;2022-12-18T15:17:31;-2.60;99.90
11848;DHT22;5983;49.966;8.052;2022-12-18T15:20:00;-2.70;99.90
11848;DHT22;5983;49.966;8.052;2022-12-18T15:22:31;-2.70;99.90
11848;DHT22;5983;49.966;8.052;2022-12-18T15:25:19;-2.70;99.90
11848;DHT22;5983;49.966;8.052;2022-12-18T15:27:53;-2.80;99.90
11848;DHT22;5983;49.966;8.052;2022-12-18T15:30:24;-2.80;99.90
11848;DHT22;5983;49.966;8.052;2022-12-18T15:32:52;-2.80;99.90
11848;DHT22;5983;49.966;8.052;2022-12-18T15:35:43;-2.80;99.90
11848;DHT22;5983;49.966;8.052;2022-12-18T15:38:10;-2.80;99.90
11848;DHT22;5983;49.966;8.052;2022-12-18T15:40:38;-2.80;99.90
11848;DHT22;5983;49.966;8.052;2022-12-18T15:43:08;-2.90;99.90
11848;DHT22;5983;49.966;8.052;2022-12-18T15:45:53;-2.90;99.90
11848;DHT22;5983;49.966;8.052;2022-12-18T15:48:21;-2.90;99.90
11848;DHT22;5983;49.966;8.052;2022-12-18T15:50:50;-2.90;99.90
11848;DHT22;5983;49.966;8.052;2022-12-18T15:53:21;-3.00;99.90
11848;DHT22;5983;49.966;8.052;2022-12-18T15:55:49;-3.00;99.90
11848;DHT22;5983;49.966;8.052;2022-12-18T15:58:34;-3.00;99.90
11848;DHT22;5983;49.966;8.052;2022-12-18T16:01:02;-3.00;99.90
11848;DHT22;5983;49.966;8.052;2022-12-18T16:03:29;-3.00;99.90
11848;DHT22;5983;49.966;8.052;2022-12-18T16:05:56;-3.00;99.90
11848;DHT22;5983;49.966;8.052;2022-12-18T16:08:27;-3.00;99.90
11848;DHT22;5983;49.966;8.052;2022-12-18T16:10:58;-3.00;99.90
11848;DHT22;5983;49.966;8.052;2022-12-18T16:13:29;-3.00;99.90
11848;DHT22;5983;49.966;8.052;2022-12-18T16:15:56;-3.00;99.90
11848;DHT22;5983;49.966;8.052;2022-12-18T16:18:26;-3.00;99.90
11848;DHT22;5983;49.966;8.052;2022-12-18T16:20:59;-3.00;99.90
11848;DHT22;5983;49.966;8.052;2022-12-18T16:23:26;-3.10;99.90
11848;DHT22;5983;49.966;8.052;2022-12-18T16:25:54;-3.10;99.90
11848;DHT22;5983;49.966;8.052;2022-12-18T16:28:26;-3.10;99.90
11848;DHT22;5983;49.966;8.052;2022-12-18T16:30:55;-3.10;99.90